createdAt,value
2022-08-16T00:00:40.281Z,99981.00
2022-08-16T00:03:13.591Z,99981.19
2022-08-16T00:05:48.466Z,99971.78
2022-08-16T00:08:35.668Z,99971.75
2022-08-16T00:11:08.091Z,99971.13
2022-08-16T00:13:42.568Z,99970.69
2022-08-16T00:17:05.987Z,99974.50
2022-08-16T00:18:56.670Z,99978.59
2022-08-16T00:21:25.093Z,99971.38
2022-08-16T00:23:51.731Z,99972.34
2022-08-16T00:26:35.310Z,99971.94
2022-08-16T00:29:05.150Z,99962.34
2022-08-16T00:31:58.713Z,99969.69
2022-08-16T00:34:22.901Z,99959.66
2022-08-16T00:37:10.214Z,99964.97
2022-08-16T00:39:36.911Z,99962.31
2022-08-16T00:42:05.919Z,99962.31
2022-08-16T00:44:39.399Z,99954.72
2022-08-16T00:47:16.208Z,99962.19
2022-08-16T00:49:44.587Z,99953.19
2022-08-16T00:52:29.472Z,99951.38
2022-08-16T00:54:59.380Z,99959.13
2022-08-16T00:57:27.638Z,99949.94
2022-08-16T01:00:19.792Z,99952.19
2022-08-16T01:02:48.813Z,99952.56
2022-08-16T01:05:16.196Z,99940.13
2022-08-16T01:07:52.049Z,99940.50
2022-08-16T01:10:32.806Z,99929.06
2022-08-16T01:13:12.100Z,99935.81
2022-08-16T01:15:47.979Z,99929.69
2022-08-16T01:18:39.860Z,99926.78
2022-08-16T01:21:41.880Z,99935.75
2022-08-16T01:24:53.494Z,99943.31
2022-08-16T01:27:31.612Z,99939.38
2022-08-16T01:30:04.845Z,99947.72
2022-08-16T01:33:01.624Z,99940.34
2022-08-16T01:35:52.649Z,99948.31
2022-08-16T01:38:25.916Z,99942.03
2022-08-16T01:41:19.323Z,99943.47
2022-08-16T01:43:54.318Z,99944.72
2022-08-16T01:46:39.682Z,99950.63
2022-08-16T01:49:43.196Z,99945.13
2022-08-16T01:52:29.967Z,99941.28
2022-08-16T01:55:18.595Z,99935.13
2022-08-16T01:57:53.572Z,99939.25
2022-08-16T02:00:28.854Z,99935.50
2022-08-16T02:02:58.052Z,99930.22
2022-08-16T02:05:24.802Z,99924.69
2022-08-16T02:07:52.001Z,99919.75
2022-08-16T02:10:20.468Z,99921.97
2022-08-16T02:12:56.082Z,99923.81
2022-08-16T02:15:29.088Z,99920.28
2022-08-16T02:18:01.187Z,99929.28
2022-08-16T02:20:33.071Z,99930.28
2022-08-16T02:23:05.899Z,99933.00
2022-08-16T02:25:51.046Z,99938.88
2022-08-16T02:28:23.722Z,99945.47
2022-08-16T02:30:52.394Z,99945.75
2022-08-16T02:33:24.622Z,99942.50
2022-08-16T02:36:14.293Z,99951.53
2022-08-16T02:38:56.774Z,99955.63
2022-08-16T02:41:24.334Z,99956.66
2022-08-16T02:43:53.326Z,99975.22
2022-08-16T02:46:20.831Z,99969.63
2022-08-16T02:49:01.974Z,99965.22
2022-08-16T02:51:29.745Z,99971.91
2022-08-16T02:53:59.406Z,99969.63
2022-08-16T02:56:32.402Z,99966.09
2022-08-16T02:58:59.869Z,99976.88
2022-08-16T03:01:36.674Z,99958.16
2022-08-16T03:04:29.278Z,99955.41
2022-08-16T03:06:57.354Z,99953.97
2022-08-16T03:09:38.467Z,99963.38
2022-08-16T03:12:06.649Z,99956.50
2022-08-16T03:14:34.793Z,99971.41
2022-08-16T03:17:06.440Z,99962.44
2022-08-16T03:19:48.217Z,99956.94
2022-08-16T03:22:28.012Z,99963.63
2022-08-16T03:25:01.032Z,99962.81
2022-08-16T03:27:32.311Z,99963.63
2022-08-16T03:30:25.775Z,99966.09
2022-08-16T03:32:59.497Z,99963.44
2022-08-16T03:35:36.581Z,99955.75
2022-08-16T03:38:33.764Z,99950.63
2022-08-16T03:41:24.364Z,99946.06
2022-08-16T03:43:58.681Z,99953.03
2022-08-16T03:46:48.448Z,99976.06
2022-08-16T03:49:36.467Z,99972.84
2022-08-16T03:52:05.759Z,99966.47
2022-08-16T03:54:35.913Z,99967.03
2022-08-16T03:57:05.150Z,99963.38
2022-08-16T03:59:33.141Z,99967.03
2022-08-16T04:02:12.621Z,99971.41
2022-08-16T04:04:50.104Z,99969.19
2022-08-16T04:07:17.125Z,99967.91
2022-08-16T04:09:47.052Z,99976.34
2022-08-16T04:12:54.564Z,99969.19
2022-08-16T04:15:02.810Z,99969.81
2022-08-16T04:17:35.161Z,99957.25
2022-08-16T04:20:23.904Z,99962.00
2022-08-16T04:22:55.835Z,99957.41
2022-08-16T04:25:23.568Z,99960.06
2022-08-16T04:27:54.168Z,99967.00
2022-08-16T04:30:32.215Z,99968.91
2022-08-16T04:33:04.360Z,99969.28
2022-08-16T04:35:34.738Z,99968.91
2022-08-16T04:38:10.630Z,99964.59
2022-08-16T04:40:50.041Z,99972.56
2022-08-16T04:43:18.698Z,99964.34
2022-08-16T04:45:47.174Z,99970.09
2022-08-16T04:48:28.147Z,99969.09
2022-08-16T04:51:00.690Z,99968.91
2022-08-16T04:53:41.526Z,99966.88
2022-08-16T04:56:11.571Z,99966.88
2022-08-16T04:58:45.940Z,99972.00
2022-08-16T05:01:15.546Z,99971.19
2022-08-16T05:04:00.908Z,99972.63
2022-08-16T05:06:46.733Z,99968.94
2022-08-16T05:09:22.946Z,99977.34
2022-08-16T05:11:53.238Z,99983.47
2022-08-16T05:14:45.866Z,99979.41
2022-08-16T05:17:14.266Z,99980.78
2022-08-16T05:19:46.594Z,99978.69
2022-08-16T05:22:28.463Z,99974.50
2022-08-16T05:24:57.656Z,99983.81
2022-08-16T05:27:24.524Z,99976.72
2022-08-16T05:29:57.437Z,99974.94
2022-08-16T05:32:32.581Z,99972.78
2022-08-16T05:35:11.114Z,99974.41
2022-08-16T05:37:42.295Z,99975.84
2022-08-16T05:40:16.248Z,99973.19
2022-08-16T05:42:47.552Z,99984.22
2022-08-16T05:45:21.404Z,99978.28
2022-08-16T05:47:59.496Z,99980.13
2022-08-16T05:50:35.335Z,99983.44
2022-08-16T05:53:04.044Z,99972.88
2022-08-16T05:55:36.793Z,99982.31
2022-08-16T05:58:08.321Z,99975.38
2022-08-16T06:00:37.085Z,99980.13
2022-08-16T06:03:05.353Z,99968.53
2022-08-16T06:05:57.038Z,99963.47
2022-08-16T06:08:32.099Z,99964.47
2022-08-16T06:11:09.572Z,99966.13
2022-08-16T06:13:37.861Z,99977.19
2022-08-16T06:16:18.659Z,99962.03
2022-08-16T06:18:50.914Z,99968.59
2022-08-16T06:21:22.562Z,99956.31
2022-08-16T06:23:55.759Z,99958.78
2022-08-16T06:26:24.129Z,99968.44
2022-08-16T06:29:07.665Z,99964.56
2022-08-16T06:31:46.773Z,99963.00
2022-08-16T06:34:54.865Z,99973.69
2022-08-16T06:37:04.756Z,99961.41
2022-08-16T06:39:49.855Z,99967.56
2022-08-16T06:42:39.561Z,99968.59
2022-08-16T06:45:31.141Z,99972.69
2022-08-16T06:48:05.563Z,99974.97
2022-08-16T06:50:33.748Z,99973.13
2022-08-16T06:53:08.479Z,99978.50
2022-08-16T06:55:43.257Z,99984.16
2022-08-16T06:58:21.949Z,99981.72
2022-08-16T07:00:58.089Z,99987.25
2022-08-16T07:03:32.172Z,99982.34
2022-08-16T07:06:03.756Z,99991.56
2022-08-16T07:08:37.939Z,99982.16
2022-08-16T07:11:09.256Z,99993.63
2022-08-16T07:14:03.967Z,99998.09
2022-08-16T07:16:28.109Z,99986.25
2022-08-16T07:18:59.113Z,99988.69
2022-08-16T07:21:45.839Z,99984.44
2022-08-16T07:24:26.820Z,99991.38
2022-08-16T07:27:08.557Z,99974.97
2022-08-16T07:29:40.284Z,99968.44
2022-08-16T07:32:11.327Z,99972.44
2022-08-16T07:34:48.612Z,99979.06
2022-08-16T07:37:23.082Z,99983.19
2022-08-16T07:40:11.015Z,99980.34
2022-08-16T07:42:40.611Z,99979.09
2022-08-16T07:45:10.188Z,99982.97
2022-08-16T07:47:44.633Z,99980.28
2022-08-16T07:50:55.578Z,99982.38
2022-08-16T07:53:04.459Z,99982.75
2022-08-16T07:55:45.969Z,99991.19
2022-08-16T07:58:34.378Z,99995.88
2022-08-16T08:01:10.699Z,99992.38
2022-08-16T08:03:48.243Z,100000.34
2022-08-16T08:06:21.369Z,99995.25
2022-08-16T08:08:57.186Z,100003.25
2022-08-16T08:11:31.076Z,100002.44
2022-08-16T08:14:06.844Z,100008.97
2022-08-16T08:16:45.460Z,100007.94
2022-08-16T08:19:22.792Z,100010.81
2022-08-16T08:21:58.768Z,100009.78
2022-08-16T08:24:46.827Z,100005.72
2022-08-16T08:27:22.774Z,100017.94
2022-08-16T08:30:52.071Z,100019.22
2022-08-16T08:32:57.553Z,100021.66
2022-08-16T08:35:28.672Z,100022.44
2022-08-16T08:37:57.180Z,100021.66
2022-08-16T08:40:28.492Z,100029.47
2022-08-16T08:43:11.379Z,100032.53
2022-08-16T08:45:46.900Z,100034.81
2022-08-16T08:48:33.620Z,100029.84
2022-08-16T08:51:12.028Z,100026.78
2022-08-16T08:53:57.802Z,100030.00
2022-08-16T08:56:34.925Z,100034.03
2022-08-16T08:59:23.619Z,100026.47
2022-08-16T09:01:58.115Z,100028.09
2022-08-16T09:04:43.462Z,100033.31
2022-08-16T09:07:15.831Z,100039.25
2022-08-16T09:09:43.049Z,100041.97
2022-08-16T09:12:35.429Z,100039.00
2022-08-16T09:15:08.257Z,100041.97
2022-08-16T09:17:51.502Z,100042.19
2022-08-16T09:20:23.519Z,100037.66
2022-08-16T09:22:51.157Z,100037.47
2022-08-16T09:25:26.485Z,100043.53
2022-08-16T09:28:10.167Z,100043.47
2022-08-16T09:30:45.087Z,100037.31
2022-08-16T09:33:19.962Z,100045.69
2022-08-16T09:35:53.013Z,100043.78
2022-08-16T09:38:31.791Z,100039.38
2022-08-16T09:41:01.084Z,100050.56
2022-08-16T09:43:58.674Z,100044.16
2022-08-16T09:46:45.612Z,100052.94
2022-08-16T09:49:03.816Z,100045.47
2022-08-16T09:51:36.748Z,100046.38
2022-08-16T09:54:06.020Z,100048.19
2022-08-16T09:56:35.942Z,100043.88
2022-08-16T09:59:08.207Z,100053.47
2022-08-16T10:01:37.084Z,100052.44
2022-08-16T10:04:28.939Z,100045.13
2022-08-16T10:09:54.103Z,100055.19
2022-08-16T10:12:35.464Z,100051.72
2022-08-16T10:15:16.001Z,100059.72
2022-08-16T10:18:00.956Z,100062.72
2022-08-16T10:20:38.133Z,100071.63
2022-08-16T10:23:08.054Z,100073.28
2022-08-16T10:27:19.332Z,100078.06
2022-08-16T10:28:32.469Z,100075.28
2022-08-16T10:31:08.173Z,100069.81
2022-08-16T10:33:40.364Z,100082.22
2022-08-16T10:36:08.894Z,100095.47
2022-08-16T10:38:38.960Z,100088.06
2022-08-16T10:41:10.348Z,100096.66
2022-08-16T10:43:39.275Z,100082.94
2022-08-16T10:46:39.843Z,100099.72
2022-08-16T10:48:58.688Z,100085.81
2022-08-16T10:51:34.653Z,100094.75
2022-08-16T10:54:28.691Z,100087.66
2022-08-16T10:56:59.073Z,100093.19
2022-08-16T10:59:39.039Z,100084.78
2022-08-16T11:03:04.737Z,100094.28
2022-08-16T11:05:05.984Z,100086.84
2022-08-16T11:07:52.382Z,100101.75
2022-08-16T11:19:12.380Z,100114.72
2022-08-16T11:24:41.392Z,100122.34
2022-08-16T11:27:35.299Z,100113.44
2022-08-16T11:30:09.207Z,100123.19
2022-08-16T11:32:44.378Z,100123.34
2022-08-16T11:35:16.032Z,100133.78
2022-08-16T11:40:44.457Z,100143.00
2022-08-16T11:43:13.152Z,100137.06
2022-08-16T11:45:44.088Z,100141.75
2022-08-16T11:48:22.972Z,100148.28
2022-08-16T11:50:49.688Z,100140.78
2022-08-16T11:53:22.047Z,100145.25
2022-08-16T11:55:54.458Z,100136.25
2022-08-16T11:58:24.542Z,100143.56
2022-08-16T12:00:53.128Z,100130.50
2022-08-16T12:03:36.723Z,100139.31
2022-08-16T12:06:25.007Z,100138.88
2022-08-16T12:08:57.559Z,100138.00
2022-08-16T12:11:29.007Z,100141.94
2022-08-16T12:14:05.744Z,100139.63
2022-08-16T12:16:37.383Z,100126.41
2022-08-16T12:19:10.394Z,100152.44
2022-08-16T12:21:58.475Z,100138.72
2022-08-16T12:24:27.103Z,100135.00
2022-08-16T12:26:54.215Z,100139.47
2022-08-16T12:29:21.913Z,100138.88
2022-08-16T12:32:00.652Z,100143.78
2022-08-16T12:34:39.640Z,100135.19
2022-08-16T12:37:18.343Z,100144.66
2022-08-16T12:39:51.364Z,100144.44
2022-08-16T12:42:20.610Z,100139.09
2022-08-16T12:44:49.571Z,100143.41
2022-08-16T12:47:38.641Z,100140.69
2022-08-16T12:50:10.461Z,100136.66
2022-08-16T12:52:45.141Z,100149.53
2022-08-16T12:55:20.820Z,100138.03
2022-08-16T12:57:57.867Z,100137.16
2022-08-16T13:00:32.999Z,100146.66
2022-08-16T13:03:04.731Z,100139.59
2022-08-16T13:05:53.401Z,100140.44
2022-08-16T13:08:27.476Z,100142.59
2022-08-16T13:10:58.653Z,100142.91
2022-08-16T13:13:25.890Z,100135.53
2022-08-16T13:16:00.892Z,100155.75
2022-08-16T13:18:34.682Z,100146.16
2022-08-16T13:21:05.034Z,100146.91
2022-08-16T13:23:31.756Z,100149.13
2022-08-16T13:26:01.890Z,100150.81
2022-08-16T13:28:28.755Z,100158.47
2022-08-16T13:30:57.917Z,100164.16
2022-08-16T13:33:30.427Z,100165.53
2022-08-16T13:36:01.201Z,100157.94
2022-08-16T13:38:37.076Z,100161.03
2022-08-16T13:41:08.514Z,100158.44
2022-08-16T13:43:38.045Z,100155.00
2022-08-16T13:46:05.611Z,100152.06
2022-08-16T13:48:37.135Z,100149.38
2022-08-16T13:51:17.412Z,100149.03
2022-08-16T13:53:59.717Z,100156.03
2022-08-16T13:56:36.952Z,100149.41
2022-08-16T13:59:13.981Z,100144.00
2022-08-16T14:01:47.513Z,100140.31
2022-08-16T14:04:26.408Z,100140.50
2022-08-16T14:06:56.421Z,100141.03
2022-08-16T14:09:28.324Z,100143.97
2022-08-16T14:11:57.440Z,100151.69
2022-08-16T14:14:28.915Z,100152.44
2022-08-16T14:17:01.628Z,100158.28
2022-08-16T14:19:31.064Z,100157.72
2022-08-16T14:22:14.626Z,100163.97
2022-08-16T14:24:47.480Z,100160.03
2022-08-16T14:27:17.572Z,100152.19
2022-08-16T14:29:45.503Z,100155.75
2022-08-16T14:32:32.414Z,100157.84
2022-08-16T14:35:13.927Z,100155.16
2022-08-16T14:37:43.162Z,100164.03
2022-08-16T14:40:13.685Z,100167.91
2022-08-16T14:42:41.183Z,100158.25
2022-08-16T14:45:13.591Z,100156.50
2022-08-16T14:47:41.016Z,100158.75
2022-08-16T14:50:12.966Z,100162.28
2022-08-16T14:52:55.219Z,100161.97
2022-08-16T14:55:26.086Z,100161.78
2022-08-16T14:57:54.557Z,100150.84
2022-08-16T15:00:33.155Z,100165.53
2022-08-16T15:03:06.847Z,100160.41
2022-08-16T15:05:38.299Z,100156.22
2022-08-16T15:08:05.965Z,100149.97
2022-08-16T15:10:44.916Z,100151.91
2022-08-16T15:13:13.857Z,100152.19
2022-08-16T15:15:43.430Z,100147.91
2022-08-16T15:18:12.132Z,100137.09
2022-08-16T15:20:41.416Z,100143.47
2022-08-16T15:23:10.013Z,100151.81
2022-08-16T15:25:42.649Z,100150.09
2022-08-16T15:28:23.951Z,100152.09
2022-08-16T15:31:04.374Z,100141.28
2022-08-16T15:33:42.165Z,100150.06
2022-08-16T15:36:17.496Z,100151.44
2022-08-16T15:39:03.845Z,100152.09
2022-08-16T15:41:42.657Z,100154.78
2022-08-16T15:44:22.567Z,100157.91
2022-08-16T15:46:55.777Z,100153.09
2022-08-16T15:49:39.062Z,100159.34
2022-08-16T15:52:25.002Z,100161.66
2022-08-16T15:54:58.102Z,100169.53
2022-08-16T15:57:27.788Z,100172.97
2022-08-16T16:00:04.766Z,100170.84
2022-08-16T16:02:42.306Z,100177.31
2022-08-16T16:05:10.482Z,100167.78
2022-08-16T16:07:55.652Z,100176.03
2022-08-16T16:10:29.445Z,100177.09
2022-08-16T16:12:58.105Z,100188.66
2022-08-16T16:15:29.833Z,100194.06
2022-08-16T16:17:57.606Z,100197.88
2022-08-16T16:20:27.861Z,100197.72
2022-08-16T16:23:04.074Z,100202.56
2022-08-16T16:25:39.950Z,100211.25
2022-08-16T16:28:46.354Z,100212.75
2022-08-16T16:31:07.585Z,100218.59
2022-08-16T16:33:43.228Z,100216.78
2022-08-16T16:36:19.306Z,100221.97
2022-08-16T16:38:47.587Z,100224.69
2022-08-16T16:41:20.496Z,100226.13
2022-08-16T16:43:50.322Z,100226.72
2022-08-16T16:46:40.411Z,100217.06
2022-08-16T16:49:13.938Z,100227.06
2022-08-16T16:51:49.699Z,100217.56
2022-08-16T16:54:27.522Z,100235.13
2022-08-16T16:56:55.468Z,100224.50
2022-08-16T16:59:25.505Z,100236.28
2022-08-16T17:02:38.835Z,100228.81
2022-08-16T17:04:47.649Z,100231.06
2022-08-16T17:07:14.891Z,100243.34
2022-08-16T17:09:41.718Z,100237.44
2022-08-16T17:12:14.581Z,100244.03
2022-08-16T17:14:55.350Z,100250.72
2022-08-16T17:17:22.878Z,100239.41
2022-08-16T17:19:51.136Z,100256.44
2022-08-16T17:22:20.509Z,100262.84
2022-08-16T17:24:50.714Z,100264.63
2022-08-16T17:27:34.173Z,100265.25
2022-08-16T17:30:18.268Z,100272.78
2022-08-16T17:32:54.669Z,100278.63
2022-08-16T17:35:33.987Z,100275.28
2022-08-16T17:38:07.345Z,100288.78
2022-08-16T17:40:47.458Z,100289.91
2022-08-16T17:43:29.300Z,100291.84
2022-08-16T17:46:03.740Z,100300.41
2022-08-16T17:48:31.204Z,100297.69
2022-08-16T17:51:01.978Z,100300.03
2022-08-16T17:53:30.188Z,100296.63
2022-08-16T17:55:56.933Z,100309.16
2022-08-16T17:58:27.252Z,100306.28
2022-08-16T18:01:01.067Z,100306.03
2022-08-16T18:04:02.186Z,100315.06
2022-08-16T18:06:23.740Z,100318.34
2022-08-16T18:08:55.914Z,100312.75
2022-08-16T18:11:27.751Z,100324.50
2022-08-16T18:13:55.061Z,100321.41
2022-08-16T18:16:21.828Z,100327.16
2022-08-16T18:18:48.461Z,100324.72
2022-08-16T18:21:33.904Z,100319.97
2022-08-16T18:24:00.847Z,100323.88
2022-08-16T18:26:27.578Z,100329.69
2022-08-16T18:28:54.321Z,100329.78
2022-08-16T18:31:21.010Z,100327.97
2022-08-16T18:33:47.608Z,100322.88
2022-08-16T18:36:20.060Z,100330.84
2022-08-16T18:38:49.291Z,100329.38
2022-08-16T18:41:16.395Z,100334.75
2022-08-16T18:44:23.717Z,100332.94
2022-08-16T18:46:29.764Z,100336.00
2022-08-16T18:48:56.998Z,100331.44
2022-08-16T18:51:25.479Z,100329.75
2022-08-16T18:53:53.173Z,100334.84
2022-08-16T18:56:19.905Z,100334.97
2022-08-16T18:58:46.545Z,100343.56
2022-08-16T19:01:13.438Z,100341.66
2022-08-16T19:03:40.089Z,100330.31
2022-08-16T19:06:13.893Z,100340.69
2022-08-16T19:08:43.519Z,100339.81
2022-08-16T19:11:13.918Z,100347.84
2022-08-16T19:13:44.019Z,100347.38
2022-08-16T19:16:12.073Z,100348.59
2022-08-16T19:18:39.279Z,100356.19
2022-08-16T19:21:07.678Z,100354.72
2022-08-16T19:23:37.276Z,100354.28
2022-08-16T19:26:20.287Z,100361.00
2022-08-16T19:28:58.363Z,100359.34
2022-08-16T19:31:30.135Z,100359.94
2022-08-16T19:33:57.642Z,100362.06
2022-08-16T19:36:35.746Z,100367.19
2022-08-16T19:39:13.614Z,100368.59
2022-08-16T19:41:46.416Z,100371.25
2022-08-16T19:44:20.049Z,100385.38
2022-08-16T19:46:48.666Z,100390.34
2022-08-16T19:49:16.559Z,100385.47
2022-08-16T19:51:47.544Z,100381.53
2022-08-16T19:54:14.871Z,100379.72
2022-08-16T19:56:41.600Z,100384.09
2022-08-16T19:59:39.181Z,100383.38
2022-08-16T20:01:55.081Z,100384.75
2022-08-16T20:04:23.464Z,100385.94
2022-08-16T20:06:52.538Z,100386.22
2022-08-16T20:09:20.447Z,100390.72
2022-08-16T20:11:48.242Z,100391.06
2022-08-16T20:14:24.360Z,100388.22
2022-08-16T20:16:56.862Z,100397.41
2022-08-16T20:19:24.880Z,100397.09
2022-08-16T20:21:51.500Z,100392.38
2022-08-16T20:24:35.745Z,100397.84
2022-08-16T20:27:05.030Z,100402.84
2022-08-16T20:29:31.684Z,100402.56
2022-08-16T20:31:58.632Z,100401.84
2022-08-16T20:34:25.295Z,100402.47
2022-08-16T20:36:51.937Z,100398.66
2022-08-16T20:39:18.675Z,100392.50
2022-08-16T20:41:45.336Z,100402.13
2022-08-16T20:44:12.607Z,100392.72
2022-08-16T20:46:39.908Z,100405.78
2022-08-16T20:49:09.287Z,100399.19
2022-08-16T20:51:49.824Z,100397.72
2022-08-16T20:54:18.156Z,100396.38
2022-08-16T20:56:44.695Z,100403.06
2022-08-16T20:59:11.284Z,100409.75
2022-08-16T21:01:45.993Z,100407.00
2022-08-16T21:04:16.230Z,100404.59
2022-08-16T21:06:42.876Z,100413.75
2022-08-16T21:09:23.557Z,100412.81
2022-08-16T21:11:53.413Z,100406.69
2022-08-16T21:14:20.177Z,100412.00
2022-08-16T21:16:46.843Z,100412.72
2022-08-16T21:19:13.795Z,100410.06
2022-08-16T21:21:40.506Z,100404.81
2022-08-16T21:24:07.261Z,100409.28
2022-08-16T21:26:38.981Z,100411.47
2022-08-16T21:29:07.852Z,100407.16
2022-08-16T21:31:40.277Z,100412.78
2022-08-16T21:34:08.166Z,100410.13
2022-08-16T21:36:36.333Z,100413.63
2022-08-16T21:39:06.132Z,100408.16
2022-08-16T21:41:33.729Z,100412.66
2022-08-16T21:44:00.352Z,100414.81
2022-08-16T21:46:26.970Z,100413.34
2022-08-16T21:48:53.557Z,100414.38
2022-08-16T21:51:20.674Z,100419.97
2022-08-16T21:53:47.418Z,100415.47
2022-08-16T21:56:17.295Z,100415.44
2022-08-16T21:58:45.531Z,100411.63
2022-08-16T22:01:12.276Z,100412.72
2022-08-16T22:03:39.056Z,100413.16
2022-08-16T22:06:12.785Z,100414.59
2022-08-16T22:08:48.870Z,100420.06
2022-08-16T22:11:18.516Z,100409.16
2022-08-16T22:13:57.298Z,100403.19
2022-08-16T22:16:29.085Z,100413.94
2022-08-16T22:18:55.789Z,100409.16
2022-08-16T22:21:22.694Z,100407.06
2022-08-16T22:23:55.175Z,100408.06
2022-08-16T22:26:39.613Z,100404.31
2022-08-16T22:29:11.458Z,100413.72
2022-08-16T22:31:39.414Z,100411.63
2022-08-16T22:34:06.585Z,100414.06
2022-08-16T22:36:33.799Z,100417.38
2022-08-16T22:39:03.645Z,100419.66
2022-08-16T22:41:31.974Z,100415.91
2022-08-16T22:44:00.051Z,100421.84
2022-08-16T22:46:26.817Z,100422.22
2022-08-16T22:48:53.412Z,100426.34
2022-08-16T22:51:21.831Z,100425.34
2022-08-16T22:53:48.718Z,100431.44
2022-08-16T22:56:18.325Z,100429.19
2022-08-16T22:58:46.085Z,100438.78
2022-08-16T23:01:14.362Z,100429.66
2022-08-16T23:03:41.679Z,100434.00
2022-08-16T23:06:11.929Z,100430.19
2022-08-16T23:08:41.179Z,100431.50
2022-08-16T23:11:22.680Z,100441.97
2022-08-16T23:13:55.063Z,100440.28
2022-08-16T23:16:33.384Z,100444.78
2022-08-16T23:19:06.908Z,100437.19
2022-08-16T23:21:34.665Z,100446.13
2022-08-16T23:24:02.125Z,100440.19
2022-08-16T23:26:36.479Z,100443.38
2022-08-16T23:29:24.084Z,100451.47
2022-08-16T23:31:55.910Z,100444.66
2022-08-16T23:34:22.701Z,100446.84
2022-08-16T23:36:49.324Z,100453.44
2022-08-16T23:39:15.939Z,100447.13
2022-08-16T23:41:43.813Z,100451.59
2022-08-16T23:44:56.923Z,100449.03
2022-08-16T23:46:57.208Z,100449.22
2022-08-16T23:49:55.924Z,100444.47
2022-08-16T23:52:10.701Z,100442.81
2022-08-16T23:54:37.277Z,100441.50
2022-08-16T23:57:04.101Z,100441.50
2022-08-16T23:59:35.949Z,100444.47
